Time;durP1;ratioP1;P1;durP2;ratioP2;P2;SDS_P1;SDS_P2;PMS_P1;PMS_P2;Temp;Humidity;BMP_temperature;BMP_pressure;BME280_temperature;BME280_humidity;BME280_pressure;Samples;Min_cycle;Max_cycle;Signal;HPM_P1;HPM_P2
2023/09/23 00:02:24;;;;;;;0.98;0.30;;;16.40;68.00;;;;;;2366348;53;21069;-69
2023/09/23 00:04:51;;;;;;;0.47;0.25;;;16.40;68.00;;;;;;2623075;52;20963;-68
2023/09/23 00:07:18;;;;;;;0.80;0.32;;;16.40;68.00;;;;;;2621794;52;20954;-69
2023/09/23 00:09:44;;;;;;;0.73;0.40;;;16.30;67.90;;;;;;2347462;53;20966;-68
2023/09/23 00:12:12;;;;;;;0.90;0.40;;;16.40;68.10;;;;;;2619628;52;20926;-69
2023/09/23 00:14:38;;;;;;;0.65;0.30;;;16.30;68.10;;;;;;2622454;52;20914;-70
2023/09/23 00:17:04;;;;;;;0.82;0.40;;;16.30;68.10;;;;;;2622997;52;20984;-71
2023/09/23 00:19:34;;;;;;;1.33;0.30;;;16.30;68.20;;;;;;2369809;53;20938;-70
2023/09/23 00:22:02;;;;;;;0.47;0.20;;;16.20;68.10;;;;;;2621754;52;21070;-69
2023/09/23 00:24:33;;;;;;;0.68;0.30;;;16.20;68.10;;;;;;2370071;53;20990;-69
2023/09/23 00:26:59;;;;;;;0.88;0.30;;;16.20;68.10;;;;;;2369853;53;20966;-69
2023/09/23 00:29:28;;;;;;;1.15;0.32;;;16.10;68.10;;;;;;2594072;52;20923;-69
2023/09/23 00:31:55;;;;;;;0.52;0.20;;;16.10;68.20;;;;;;2370008;53;20914;-72
2023/09/23 00:34:23;;;;;;;2.97;0.40;;;16.10;68.20;;;;;;2622350;52;20939;-69
2023/09/23 00:36:50;;;;;;;0.62;0.30;;;16.10;69.00;;;;;;2623010;52;20941;-69
2023/09/23 00:39:17;;;;;;;0.95;0.30;;;16.10;68.30;;;;;;2621536;52;21798;-69
2023/09/23 00:41:45;;;;;;;2.12;0.30;;;16.00;68.20;;;;;;2618099;52;21018;-70
2023/09/23 00:44:11;;;;;;;1.20;0.40;;;16.00;68.20;;;;;;2621905;52;20930;-69
2023/09/23 00:46:37;;;;;;;0.70;0.30;;;16.00;68.30;;;;;;2603984;52;21002;-70
2023/09/23 00:49:07;;;;;;;2.05;0.93;;;16.00;68.30;;;;;;2612586;52;20919;-69
2023/09/23 00:51:34;;;;;;;0.60;0.20;;;16.00;68.40;;;;;;2621913;52;20934;-71
2023/09/23 00:54:01;;;;;;;0.75;0.30;;;16.00;68.40;;;;;;2368928;53;21329;-70
2023/09/23 00:56:31;;;;;;;0.25;0.20;;;16.00;68.40;;;;;;2622293;52;20971;-71
2023/09/23 00:58:58;;;;;;;1.00;0.30;;;15.90;68.20;;;;;;2360267;53;21009;-71
2023/09/23 01:01:26;;;;;;;1.25;0.40;;;15.90;68.30;;;;;;2359464;53;20895;-71
2023/09/23 01:03:52;;;;;;;1.08;0.30;;;15.90;68.30;;;;;;2622336;52;20926;-68
2023/09/23 01:06:21;;;;;;;1.08;0.28;;;15.90;68.30;;;;;;2622459;52;21373;-69
2023/09/23 01:08:50;;;;;;;0.70;0.30;;;15.90;68.40;;;;;;2622799;52;21439;-69
2023/09/23 01:11:19;;;;;;;1.27;0.40;;;15.90;68.40;;;;;;2341948;53;20984;-70
2023/09/23 01:13:50;;;;;;;1.00;0.40;;;15.90;68.20;;;;;;2587965;52;21097;-70
2023/09/23 01:16:16;;;;;;;0.65;0.30;;;15.80;68.30;;;;;;2587989;52;21125;-71
2023/09/23 01:18:45;;;;;;;0.77;0.32;;;15.80;68.20;;;;;;2558674;52;20956;-70
2023/09/23 01:21:12;;;;;;;1.50;0.47;;;15.80;68.20;;;;;;2341283;54;20940;-69
2023/09/23 01:23:39;;;;;;;1.12;0.40;;;15.70;68.10;;;;;;2588622;52;21853;-70
2023/09/23 01:26:05;;;;;;;1.52;0.30;;;15.70;68.20;;;;;;2342297;54;20941;-68
2023/09/23 01:28:32;;;;;;;0.80;0.30;;;15.70;68.20;;;;;;2338485;53;21646;-68
2023/09/23 01:31:02;;;;;;;0.60;0.28;;;15.70;68.20;;;;;;2610254;52;20967;-71
2023/09/23 01:33:29;;;;;;;0.95;0.40;;;15.70;68.20;;;;;;2369672;53;21506;-71
2023/09/23 01:36:02;;;;;;;0.50;0.30;;;15.60;68.20;;;;;;2622152;52;20963;-69
2023/09/23 01:38:29;;;;;;;1.20;0.50;;;15.60;68.90;;;;;;2370119;53;21302;-68
2023/09/23 01:40:56;;;;;;;1.02;0.43;;;15.60;68.40;;;;;;2369592;53;21473;-68
2023/09/23 01:43:22;;;;;;;1.00;0.37;;;15.60;68.50;;;;;;2369759;53;20978;-69
2023/09/23 01:45:51;;;;;;;0.88;0.32;;;15.50;68.40;;;;;;2615974;52;21310;-69
2023/09/23 01:48:19;;;;;;;0.93;0.30;;;15.50;68.40;;;;;;2345377;53;21354;-71
2023/09/23 01:50:47;;;;;;;1.17;0.22;;;15.50;68.30;;;;;;2602522;52;20994;-68
2023/09/23 01:53:21;;;;;;;1.33;0.30;;;15.50;68.30;;;;;;2600718;52;20970;-68
2023/09/23 01:55:48;;;;;;;0.80;0.30;;;15.50;68.40;;;;;;2344141;53;21037;-69
2023/09/23 01:58:15;;;;;;;0.73;0.30;;;15.40;68.40;;;;;;2549348;53;20899;-68
2023/09/23 02:00:42;;;;;;;1.83;0.40;;;15.40;68.50;;;;;;2334254;53;21109;-72
2023/09/23 02:03:08;;;;;;;0.68;0.30;;;15.50;68.70;;;;;;2342472;53;21113;-68
2023/09/23 02:05:37;;;;;;;0.98;0.40;;;15.30;68.50;;;;;;2342589;53;20979;-68
2023/09/23 02:08:04;;;;;;;1.30;0.40;;;15.40;68.60;;;;;;2342157;53;21046;-68
2023/09/23 02:10:31;;;;;;;1.10;0.40;;;15.30;68.50;;;;;;2588342;52;20933;-68
2023/09/23 02:12:58;;;;;;;1.55;0.50;;;15.30;68.50;;;;;;2588317;52;20937;-68
2023/09/23 02:15:25;;;;;;;3.53;0.40;;;15.30;68.60;;;;;;2589213;52;20930;-68
2023/09/23 02:17:53;;;;;;;0.80;0.30;;;15.30;68.70;;;;;;2343123;53;20995;-68
2023/09/23 02:20:19;;;;;;;1.27;0.40;;;15.30;68.80;;;;;;2342347;54;21461;-69
2023/09/23 02:22:47;;;;;;;1.10;0.40;;;15.30;68.90;;;;;;2358695;53;20947;-68
2023/09/23 02:25:15;;;;;;;1.35;0.47;;;15.30;69.00;;;;;;2370990;53;21362;-68
2023/09/23 02:27:41;;;;;;;1.80;0.43;;;15.30;69.10;;;;;;2370030;53;20934;-69
2023/09/23 02:30:09;;;;;;;1.27;0.40;;;15.20;69.00;;;;;;2370622;53;21021;-68
2023/09/23 02:32:42;;;;;;;0.95;0.40;;;15.30;69.20;;;;;;2370355;53;20927;-69
2023/09/23 02:35:11;;;;;;;0.50;0.22;;;15.30;69.00;;;;;;2622635;52;21349;-68
2023/09/23 02:37:38;;;;;;;1.30;0.35;;;15.30;69.20;;;;;;2622637;52;20981;-68
2023/09/23 02:40:17;;;;;;;1.45;0.40;;;15.30;69.30;;;;;;2370371;53;20978;-69
2023/09/23 02:42:47;;;;;;;1.83;0.40;;;15.30;69.30;;;;;;2622604;52;21057;-69
2023/09/23 02:45:15;;;;;;;0.77;0.40;;;15.30;69.40;;;;;;2622962;52;20958;-69
2023/09/23 02:47:43;;;;;;;1.02;0.40;;;15.30;69.40;;;;;;2622214;52;22290;-68
2023/09/23 02:50:10;;;;;;;0.77;0.30;;;15.30;69.50;;;;;;2369528;53;20946;-69
2023/09/23 02:52:38;;;;;;;1.73;0.40;;;15.40;69.70;;;;;;2621859;52;20962;-69
2023/09/23 02:55:07;;;;;;;2.62;0.55;;;15.50;69.80;;;;;;2622924;52;21729;-68
2023/09/23 02:57:35;;;;;;;2.70;0.50;;;15.40;69.80;;;;;;2622761;52;20907;-68
2023/09/23 03:00:18;;;;;;;4.35;0.52;;;15.40;69.90;;;;;;2370318;53;21867;-68
2023/09/23 03:02:45;;;;;;;1.98;0.50;;;15.50;69.90;;;;;;2359421;53;22335;-68
2023/09/23 03:05:16;;;;;;;1.20;0.43;;;15.50;70.00;;;;;;2366354;53;20954;-69
2023/09/23 03:07:50;;;;;;;1.20;0.60;;;15.50;70.10;;;;;;2622430;52;21002;-70
2023/09/23 03:10:19;;;;;;;1.20;0.45;;;15.50;70.20;;;;;;2370794;53;20997;-71
2023/09/23 03:13:02;;;;;;;1.70;0.60;;;15.50;70.20;;;;;;2620647;52;21034;-68
2023/09/23 03:15:33;;;;;;;;;;;15.60;70.30;;;;;;2625604;52;20923;-71
2023/09/23 03:18:00;;;;;;;1.00;0.40;;;15.60;69.30;;;;;;2370405;53;20062;-69
2023/09/23 03:20:27;;;;;;;2.22;0.40;;;15.70;70.30;;;;;;2623505;52;20922;-69
2023/09/23 03:22:53;;;;;;;1.30;0.40;;;15.70;70.40;;;;;;2370538;53;20962;-69
2023/09/23 03:25:20;;;;;;;0.80;0.30;;;15.70;70.40;;;;;;2370045;53;21522;-69
2023/09/23 03:27:48;;;;;;;1.58;0.50;;;15.80;70.50;;;;;;2603997;52;20958;-69
2023/09/23 03:30:14;;;;;;;2.17;0.37;;;15.90;70.60;;;;;;2363311;53;21010;-69
2023/09/23 03:32:40;;;;;;;1.10;0.50;;;15.80;70.50;;;;;;2369163;53;20978;-69
2023/09/23 03:35:17;;;;;;;2.20;0.50;;;15.80;70.50;;;;;;2623495;52;20994;-69
2023/09/23 03:37:49;;;;;;;0.95;0.40;;;15.90;70.50;;;;;;2370269;53;21809;-69
2023/09/23 03:40:18;;;;;;;;;;;16.00;70.30;;;;;;2374454;53;20950;-70
2023/09/23 03:42:46;;;;;;;1.58;0.68;;;15.90;69.40;;;;;;2369701;53;20061;-69
2023/09/23 03:45:14;;;;;;;2.40;0.40;;;16.00;70.30;;;;;;2370586;53;20950;-68
2023/09/23 03:47:40;;;;;;;0.90;0.20;;;16.00;70.30;;;;;;2604390;52;20914;-69
2023/09/23 03:50:08;;;;;;;2.67;0.52;;;16.00;70.20;;;;;;2611793;52;20955;-68
2023/09/23 03:52:34;;;;;;;1.85;0.50;;;16.00;70.10;;;;;;2370847;53;20914;-69
2023/09/23 03:55:00;;;;;;;1.30;0.40;;;16.00;70.00;;;;;;2373258;53;21811;-68
2023/09/23 03:57:27;;;;;;;0.95;0.40;;;16.00;70.00;;;;;;2370427;53;20938;-69
2023/09/23 03:59:53;;;;;;;0.68;0.30;;;16.00;70.00;;;;;;2595719;52;21685;-68
2023/09/23 04:02:21;;;;;;;3.47;0.50;;;16.00;70.00;;;;;;2621793;52;20954;-68
2023/09/23 04:04:53;;;;;;;1.12;0.40;;;16.00;70.00;;;;;;2363765;53;21003;-69
2023/09/23 04:07:22;;;;;;;0.90;0.50;;;16.00;69.80;;;;;;2357081;53;21002;-69
2023/09/23 04:09:50;;;;;;;0.65;0.30;;;16.00;70.50;;;;;;2349981;53;20962;-70
2023/09/23 04:12:17;;;;;;;1.45;0.40;;;16.00;69.90;;;;;;2623162;52;20967;-69
2023/09/23 04:14:45;;;;;;;0.95;0.40;;;16.00;69.90;;;;;;2622464;52;20960;-69
2023/09/23 04:17:11;;;;;;;1.60;0.40;;;16.00;69.90;;;;;;2598430;52;20958;-68
2023/09/23 04:19:38;;;;;;;2.00;0.60;;;16.00;69.90;;;;;;2366137;53;20958;-68
2023/09/23 04:22:04;;;;;;;1.08;0.50;;;16.00;69.80;;;;;;2367812;53;21051;-69
2023/09/23 04:24:31;;;;;;;1.87;0.45;;;16.00;69.90;;;;;;2602129;52;20922;-68
2023/09/23 04:26:59;;;;;;;0.85;0.40;;;16.00;69.90;;;;;;2370441;53;21038;-69
2023/09/23 04:29:25;;;;;;;2.10;0.60;;;16.00;69.90;;;;;;2622995;52;20966;-70
2023/09/23 04:31:52;;;;;;;0.98;0.40;;;16.00;70.00;;;;;;2622692;52;24906;-67
2023/09/23 04:34:18;;;;;;;1.62;0.50;;;15.90;69.90;;;;;;2370442;53;21740;-69
2023/09/23 04:36:46;;;;;;;0.82;0.30;;;16.00;70.10;;;;;;2369662;53;21283;-68
2023/09/23 04:39:13;;;;;;;4.43;0.50;;;15.90;70.00;;;;;;2370664;53;21110;-68
2023/09/23 04:41:40;;;;;;;1.48;0.50;;;16.00;70.10;;;;;;2369754;53;20998;-70
2023/09/23 04:44:07;;;;;;;1.00;0.30;;;16.00;70.10;;;;;;2622733;52;21002;-68
2023/09/23 04:46:33;;;;;;;1.73;0.70;;;16.00;70.10;;;;;;2622555;52;20981;-68
2023/09/23 04:49:00;;;;;;;2.12;0.40;;;16.00;70.10;;;;;;2623205;52;21245;-69
2023/09/23 04:51:27;;;;;;;1.12;0.40;;;16.00;70.20;;;;;;2369847;53;20957;-71
2023/09/23 04:53:53;;;;;;;3.05;0.57;;;16.00;70.10;;;;;;2611796;52;20947;-68
2023/09/23 04:56:21;;;;;;;0.88;0.40;;;16.00;70.10;;;;;;2357050;53;20953;-69
2023/09/23 04:58:48;;;;;;;1.00;0.40;;;16.00;70.00;;;;;;2622341;52;20930;-68
2023/09/23 05:01:15;;;;;;;0.85;0.35;;;16.00;69.90;;;;;;2623005;52;21049;-69
2023/09/23 05:03:42;;;;;;;0.77;0.37;;;16.00;69.90;;;;;;2622261;52;20946;-67
2023/09/23 05:06:11;;;;;;;0.95;0.40;;;16.00;69.80;;;;;;2622816;52;21820;-68
2023/09/23 05:08:38;;;;;;;0.95;0.40;;;16.00;69.60;;;;;;2622317;52;20946;-70
2023/09/23 05:11:06;;;;;;;0.65;0.30;;;16.00;69.60;;;;;;2347203;53;20910;-69
2023/09/23 05:13:32;;;;;;;1.50;0.40;;;15.90;69.40;;;;;;2589317;52;21020;-68
2023/09/23 05:16:02;;;;;;;1.35;0.40;;;15.90;69.40;;;;;;2605583;52;20945;-70
2023/09/23 05:18:31;;;;;;;1.17;0.60;;;15.90;69.20;;;;;;2343052;53;20940;-69
2023/09/23 05:20:57;;;;;;;1.15;0.50;;;15.90;69.30;;;;;;2341995;53;20969;-72
2023/09/23 05:23:23;;;;;;;1.35;0.40;;;15.90;69.40;;;;;;2601137;52;21036;-69
2023/09/23 05:25:50;;;;;;;0.98;0.40;;;15.80;69.30;;;;;;2595059;52;20925;-70
2023/09/23 05:28:16;;;;;;;1.33;0.50;;;15.80;69.40;;;;;;2588636;52;20995;-70
2023/09/23 05:30:43;;;;;;;0.80;0.40;;;15.80;69.40;;;;;;2588342;52;20972;-71
2023/09/23 05:33:10;;;;;;;0.70;0.32;;;15.80;69.30;;;;;;2589128;52;21052;-67
2023/09/23 05:35:38;;;;;;;2.17;0.60;;;15.70;69.20;;;;;;2343558;53;20988;-68
2023/09/23 05:38:04;;;;;;;1.83;0.50;;;15.70;69.20;;;;;;2622907;52;20926;-67
2023/09/23 05:40:36;;;;;;;1.00;0.40;;;15.70;69.20;;;;;;2370095;53;21006;-69
2023/09/23 05:43:04;;;;;;;1.42;0.50;;;15.70;69.20;;;;;;2620012;52;21418;-70
2023/09/23 05:45:30;;;;;;;1.58;0.62;;;15.60;69.40;;;;;;2370312;53;20942;-68
2023/09/23 05:47:57;;;;;;;1.50;0.55;;;15.60;69.50;;;;;;2372403;53;20946;-68
2023/09/23 05:50:23;;;;;;;1.10;0.40;;;15.60;69.60;;;;;;2614780;52;20946;-67
2023/09/23 05:52:52;;;;;;;1.33;0.47;;;15.60;69.70;;;;;;2370291;53;20910;-68
2023/09/23 05:55:18;;;;;;;0.85;0.40;;;15.60;69.70;;;;;;2623497;52;20922;-70
2023/09/23 05:57:44;;;;;;;1.15;0.40;;;15.50;69.60;;;;;;2369618;53;21005;-69
2023/09/23 06:00:12;;;;;;;2.87;0.50;;;15.50;69.60;;;;;;2618255;52;20922;-69
2023/09/23 06:02:38;;;;;;;0.93;0.43;;;15.50;69.50;;;;;;2623743;52;20926;-71
2023/09/23 06:05:05;;;;;;;1.87;0.50;;;15.50;69.50;;;;;;2371389;53;20922;-69
2023/09/23 06:07:31;;;;;;;1.73;0.45;;;15.50;69.50;;;;;;2623223;52;21811;-71
2023/09/23 06:09:59;;;;;;;1.27;0.40;;;15.50;69.50;;;;;;2372671;53;21045;-70
2023/09/23 06:12:29;;;;;;;1.25;0.40;;;15.50;69.60;;;;;;2363430;53;21025;-71
2023/09/23 06:14:57;;;;;;;1.02;0.43;;;15.50;69.60;;;;;;2622845;52;21056;-69
2023/09/23 06:17:24;;;;;;;0.90;0.40;;;15.50;69.70;;;;;;2622845;52;20919;-68
2023/09/23 06:19:51;;;;;;;1.48;0.50;;;15.40;69.70;;;;;;2362214;53;21001;-68
2023/09/23 06:22:18;;;;;;;1.30;0.50;;;15.40;69.80;;;;;;2622150;52;20982;-68
2023/09/23 06:24:45;;;;;;;1.30;0.40;;;15.50;70.10;;;;;;2621863;52;20911;-68
2023/09/23 06:27:13;;;;;;;1.58;0.50;;;15.40;70.00;;;;;;2371072;53;21022;-68
2023/09/23 06:29:41;;;;;;;1.42;0.60;;;15.50;70.20;;;;;;2371062;53;21387;-69
2023/09/23 06:32:07;;;;;;;1.25;0.40;;;15.50;70.30;;;;;;2619598;52;20966;-68
2023/09/23 06:34:35;;;;;;;1.23;0.50;;;15.50;71.20;;;;;;2370165;53;20965;-69
2023/09/23 06:37:02;;;;;;;1.77;0.60;;;15.50;70.50;;;;;;2365303;54;21068;-69
2023/09/23 06:39:28;;;;;;;1.50;0.55;;;15.50;70.60;;;;;;2622357;52;20913;-69
2023/09/23 06:41:55;;;;;;;1.62;0.50;;;15.50;70.70;;;;;;2369647;53;21896;-68
2023/09/23 06:44:21;;;;;;;1.67;0.45;;;15.60;70.80;;;;;;2369822;53;21337;-68
2023/09/23 06:46:49;;;;;;;1.65;0.60;;;15.60;70.80;;;;;;2364410;54;20949;-68
2023/09/23 06:49:16;;;;;;;2.60;0.80;;;15.70;71.00;;;;;;2369510;53;20909;-68
2023/09/23 06:51:43;;;;;;;1.85;0.50;;;15.70;71.10;;;;;;2623135;52;20871;-69
2023/09/23 06:54:09;;;;;;;1.50;0.60;;;15.70;71.10;;;;;;2370687;53;21029;-69
2023/09/23 06:56:37;;;;;;;1.23;0.40;;;15.80;71.20;;;;;;2371211;53;21021;-69
2023/09/23 06:59:03;;;;;;;2.03;0.80;;;15.80;71.30;;;;;;2621968;52;20933;-68
2023/09/23 07:01:30;;;;;;;1.75;0.50;;;15.80;71.30;;;;;;2622614;52;20942;-69
2023/09/23 07:03:56;;;;;;;2.28;0.60;;;15.90;71.40;;;;;;2621131;52;20970;-68
2023/09/23 07:06:22;;;;;;;0.88;0.40;;;15.90;71.30;;;;;;2370429;53;20973;-71
2023/09/23 07:08:48;;;;;;;2.10;0.50;;;15.90;71.30;;;;;;2369695;53;20974;-70
2023/09/23 07:11:18;;;;;;;1.48;0.52;;;15.90;71.30;;;;;;2370744;53;20918;-68
2023/09/23 07:13:46;;;;;;;2.05;0.62;;;16.00;71.30;;;;;;2622427;52;20962;-69
2023/09/23 07:16:14;;;;;;;1.17;0.45;;;16.00;71.40;;;;;;2370554;53;21507;-69
2023/09/23 07:18:41;;;;;;;1.65;0.60;;;16.10;71.50;;;;;;2370101;53;20919;-70
2023/09/23 07:21:07;;;;;;;1.05;0.45;;;16.10;71.50;;;;;;2623117;52;20926;-69
2023/09/23 07:23:34;;;;;;;0.75;0.40;;;16.20;71.60;;;;;;2623291;52;20938;-70
2023/09/23 07:26:02;;;;;;;1.02;0.40;;;16.10;71.50;;;;;;2622374;52;20986;-70
2023/09/23 07:28:28;;;;;;;1.33;0.50;;;16.20;71.60;;;;;;2369767;53;21514;-69
2023/09/23 07:30:56;;;;;;;2.62;0.50;;;16.20;71.60;;;;;;2621821;52;21674;-69
2023/09/23 07:33:23;;;;;;;1.35;0.60;;;16.30;71.70;;;;;;2621094;52;20950;-69
2023/09/23 07:35:49;;;;;;;1.23;0.52;;;16.30;71.70;;;;;;2369354;53;20985;-69
2023/09/23 07:38:15;;;;;;;1.27;0.50;;;16.40;71.90;;;;;;2365562;54;21053;-68
2023/09/23 07:40:42;;;;;;;1.62;0.50;;;16.40;71.90;;;;;;2622680;52;20902;-70
2023/09/23 07:43:08;;;;;;;4.50;0.50;;;16.50;71.90;;;;;;2370487;53;20942;-68
2023/09/23 07:45:34;;;;;;;0.73;0.40;;;16.50;71.90;;;;;;2622806;52;20938;-71
2023/09/23 07:48:00;;;;;;;1.75;0.50;;;16.60;71.90;;;;;;2622903;52;20926;-69
2023/09/23 07:50:27;;;;;;;0.98;0.32;;;16.60;71.90;;;;;;2369955;53;21657;-71
2023/09/23 07:52:53;;;;;;;1.62;0.60;;;16.70;71.90;;;;;;2622416;52;20954;-68
2023/09/23 07:55:20;;;;;;;2.85;0.60;;;16.70;71.90;;;;;;2367923;53;20977;-69
2023/09/23 07:57:47;;;;;;;1.10;0.40;;;16.80;72.00;;;;;;2620127;52;20934;-68
2023/09/23 08:00:13;;;;;;;1.27;0.50;;;16.80;71.90;;;;;;2621639;52;21269;-69
2023/09/23 08:02:39;;;;;;;1.62;0.60;;;16.90;72.00;;;;;;2363564;53;20958;-71
2023/09/23 08:05:06;;;;;;;1.67;0.60;;;16.90;72.00;;;;;;2372632;53;21425;-69
2023/09/23 08:07:33;;;;;;;1.98;0.60;;;17.00;72.00;;;;;;2363990;54;20938;-69
2023/09/23 08:09:59;;;;;;;1.48;0.50;;;17.00;72.00;;;;;;2622511;52;21807;-71
2023/09/23 08:12:27;;;;;;;2.72;0.50;;;16.90;71.90;;;;;;2622744;52;20950;-68
2023/09/23 08:14:54;;;;;;;2.15;0.70;;;17.20;72.10;;;;;;2369320;53;20942;-69
2023/09/23 08:17:20;;;;;;;1.12;0.50;;;17.20;72.10;;;;;;2370512;53;20930;-68
2023/09/23 08:19:46;;;;;;;1.42;0.52;;;17.30;72.10;;;;;;2370239;53;21439;-68
2023/09/23 08:22:13;;;;;;;1.77;0.50;;;17.30;72.00;;;;;;2622528;52;21523;-73
2023/09/23 08:24:40;;;;;;;2.87;0.50;;;17.40;72.10;;;;;;2370119;53;20942;-72
2023/09/23 08:27:07;;;;;;;1.37;0.50;;;17.40;72.00;;;;;;2622158;52;20947;-71
2023/09/23 08:29:37;;;;;;;3.80;0.62;;;17.50;71.90;;;;;;2370230;53;20990;-70
2023/09/23 08:32:03;;;;;;;2.10;0.65;;;17.50;71.80;;;;;;2369460;53;20926;-72
2023/09/23 08:34:32;;;;;;;1.67;0.60;;;17.60;71.80;;;;;;2371268;53;21025;-71
2023/09/23 08:37:00;;;;;;;2.65;0.80;;;17.70;71.70;;;;;;2363581;53;20946;-70
2023/09/23 08:39:27;;;;;;;2.87;0.88;;;17.70;71.80;;;;;;2622967;52;20961;-69
2023/09/23 08:41:53;;;;;;;2.22;0.60;;;17.80;71.90;;;;;;2370468;53;20990;-72
2023/09/23 08:44:23;;;;;;;1.80;0.68;;;17.80;71.80;;;;;;2622294;52;21470;-70
2023/09/23 08:46:51;;;;;;;2.00;0.80;;;17.90;71.70;;;;;;2621072;52;20918;-72
2023/09/23 08:49:21;;;;;;;1.58;0.60;;;17.90;71.70;;;;;;2621782;52;20942;-70
2023/09/23 08:51:58;;;;;;;1.70;0.60;;;18.00;71.60;;;;;;2622022;52;20946;-71
2023/09/23 08:54:27;;;;;;;1.33;0.50;;;18.10;71.20;;;;;;2623170;52;20931;-72
2023/09/23 08:56:54;;;;;;;3.40;0.68;;;18.10;71.70;;;;;;2585235;52;20929;-72
2023/09/23 08:59:21;;;;;;;2.37;0.65;;;18.10;71.50;;;;;;2348452;53;20948;-71
2023/09/23 09:01:47;;;;;;;2.30;0.82;;;18.20;71.60;;;;;;2588980;52;20944;-71
2023/09/23 09:04:15;;;;;;;1.17;0.50;;;18.30;71.70;;;;;;2343411;53;21013;-69
2023/09/23 09:06:53;;;;;;;1.45;0.50;;;18.30;71.60;;;;;;2602364;52;20946;-69
2023/09/23 09:09:19;;;;;;;2.05;0.60;;;18.40;71.20;;;;;;2578441;52;21087;-70
2023/09/23 09:11:53;;;;;;;1.42;0.50;;;18.40;71.50;;;;;;2342663;53;21482;-71
2023/09/23 09:14:19;;;;;;;3.47;0.68;;;18.50;71.00;;;;;;2341088;53;20976;-70
2023/09/23 09:16:46;;;;;;;1.80;0.60;;;18.60;71.40;;;;;;2606979;52;20925;-71
2023/09/23 09:19:12;;;;;;;2.42;0.70;;;18.60;71.20;;;;;;2615444;52;21784;-66
2023/09/23 09:21:41;;;;;;;2.42;0.80;;;18.70;71.10;;;;;;2359310;53;21343;-66
2023/09/23 09:24:08;;;;;;;2.15;0.73;;;18.70;71.00;;;;;;2587913;52;21628;-68
2023/09/23 09:26:35;;;;;;;1.73;0.62;;;18.70;71.00;;;;;;2588794;52;21466;-68
2023/09/23 09:29:03;;;;;;;2.08;0.60;;;18.80;71.00;;;;;;2342527;53;21287;-67
2023/09/23 09:31:34;;;;;;;2.20;0.70;;;18.80;70.90;;;;;;2342045;53;20945;-68
2023/09/23 09:34:13;;;;;;;0.95;0.35;;;18.90;70.70;;;;;;2341892;54;21005;-69
2023/09/23 09:36:40;;;;;;;1.62;0.43;;;19.00;70.20;;;;;;2342396;54;21512;-71
2023/09/23 09:39:08;;;;;;;1.12;0.47;;;19.00;71.00;;;;;;2358245;53;20971;-72
2023/09/23 09:41:48;;;;;;;2.03;0.80;;;19.00;70.90;;;;;;2346670;53;20975;-67
2023/09/23 09:44:15;;;;;;;1.50;0.60;;;19.10;70.80;;;;;;2368191;53;20990;-74
2023/09/23 09:46:43;;;;;;;1.40;0.50;;;19.20;70.90;;;;;;2622569;52;20907;-70
2023/09/23 09:49:09;;;;;;;2.47;0.70;;;19.20;70.80;;;;;;2614371;52;20998;-71
2023/09/23 09:51:39;;;;;;;2.15;0.77;;;19.20;70.60;;;;;;2604280;52;20982;-70
2023/09/23 09:54:06;;;;;;;1.90;0.50;;;19.30;70.50;;;;;;2595363;52;21392;-73
2023/09/23 09:56:33;;;;;;;1.83;0.52;;;19.40;70.60;;;;;;2624335;52;20903;-71
2023/09/23 09:59:00;;;;;;;1.35;0.55;;;19.40;70.50;;;;;;2623387;52;21521;-69
2023/09/23 10:01:28;;;;;;;1.25;0.40;;;19.50;70.40;;;;;;2621880;52;20941;-71
2023/09/23 10:03:55;;;;;;;1.65;0.52;;;19.50;70.20;;;;;;2370586;53;21013;-69
2023/09/23 10:06:22;;;;;;;1.10;0.45;;;19.60;70.40;;;;;;2370851;53;20946;-71
2023/09/23 10:08:49;;;;;;;1.08;0.40;;;19.60;70.30;;;;;;2370463;53;20958;-71
2023/09/23 10:11:16;;;;;;;1.05;0.40;;;19.70;70.40;;;;;;2623750;52;20993;-71
2023/09/23 10:13:43;;;;;;;3.05;0.50;;;19.70;70.10;;;;;;2371083;53;20970;-72
2023/09/23 10:16:13;;;;;;;1.42;0.60;;;19.80;70.30;;;;;;2369912;53;20922;-70
2023/09/23 10:18:43;;;;;;;2.67;0.70;;;19.80;69.30;;;;;;2370261;53;21835;-69
2023/09/23 10:21:21;;;;;;;1.98;0.60;;;19.90;69.40;;;;;;2622865;52;20906;-70
2023/09/23 10:23:50;;;;;;;1.52;0.50;;;19.90;68.20;;;;;;2598878;52;21019;-70
2023/09/23 10:26:18;;;;;;;2.37;0.60;;;19.90;68.80;;;;;;2619154;52;21001;-70
2023/09/23 10:29:01;;;;;;;1.87;0.60;;;20.00;68.90;;;;;;2370277;53;20930;-69
2023/09/23 10:31:29;;;;;;;1.25;0.40;;;20.00;67.20;;;;;;2370155;53;20981;-70
2023/09/23 10:33:56;;;;;;;1.60;0.50;;;20.10;68.50;;;;;;2370144;53;21427;-71
2023/09/23 10:36:23;;;;;;;2.67;0.70;;;20.10;68.50;;;;;;2370501;53;20943;-73
2023/09/23 10:38:49;;;;;;;1.60;0.50;;;20.10;68.30;;;;;;2370527;53;20946;-71
2023/09/23 10:41:17;;;;;;;1.60;0.50;;;20.20;68.30;;;;;;2622809;52;21356;-69
2023/09/23 10:43:50;;;;;;;1.77;0.70;;;20.20;68.10;;;;;;2622713;52;20970;-70
2023/09/23 10:46:17;;;;;;;1.52;0.55;;;20.20;67.90;;;;;;2623177;52;20930;-71
2023/09/23 10:48:44;;;;;;;1.00;0.50;;;20.20;67.70;;;;;;2370093;53;20950;-72
2023/09/23 10:51:12;;;;;;;1.12;0.40;;;20.30;67.60;;;;;;2360464;53;20955;-70
2023/09/23 10:53:41;;;;;;;1.90;0.55;;;20.30;67.70;;;;;;2359505;53;20946;-71
2023/09/23 10:56:10;;;;;;;1.05;0.40;;;20.30;67.60;;;;;;2370867;53;20981;-71
2023/09/23 10:58:36;;;;;;;2.50;0.47;;;20.40;67.60;;;;;;2589175;52;20988;-70
2023/09/23 11:01:05;;;;;;;1.08;0.37;;;20.40;67.70;;;;;;2589265;52;21360;-71
2023/09/23 11:03:37;;;;;;;1.50;0.55;;;20.50;67.80;;;;;;2589488;52;20957;-71
2023/09/23 11:06:05;;;;;;;1.87;0.55;;;20.50;66.90;;;;;;2588544;52;21961;-71
2023/09/23 11:08:34;;;;;;;1.40;0.50;;;20.50;67.40;;;;;;2588979;52;20925;-69
2023/09/23 11:11:00;;;;;;;2.40;0.60;;;20.60;67.50;;;;;;2342976;53;20913;-69
2023/09/23 11:13:27;;;;;;;1.90;0.60;;;20.60;67.50;;;;;;2342421;53;20941;-69
2023/09/23 11:15:53;;;;;;;1.30;0.50;;;20.70;67.50;;;;;;2357265;53;21383;-71
2023/09/23 11:18:19;;;;;;;1.80;0.60;;;20.70;67.40;;;;;;2592177;52;20949;-70
2023/09/23 11:20:46;;;;;;;1.83;0.60;;;20.80;67.50;;;;;;2587840;52;20940;-69
2023/09/23 11:23:12;;;;;;;1.40;0.50;;;20.80;67.60;;;;;;2589146;52;21080;-67
2023/09/23 11:25:44;;;;;;;1.58;0.50;;;20.90;67.70;;;;;;2608893;52;21797;-68
2023/09/23 11:28:17;;;;;;;1.25;0.50;;;21.00;67.40;;;;;;2366210;54;20942;-69
2023/09/23 11:30:44;;;;;;;1.30;0.50;;;21.00;66.30;;;;;;2370555;53;20927;-73
2023/09/23 11:33:13;;;;;;;0.77;0.37;;;21.10;67.60;;;;;;2622739;52;21383;-71
2023/09/23 11:35:43;;;;;;;1.40;0.50;;;21.10;66.60;;;;;;2623296;52;21466;-69
2023/09/23 11:38:10;;;;;;;2.72;0.70;;;21.20;66.30;;;;;;2365804;53;20937;-70
2023/09/23 11:40:36;;;;;;;2.28;0.70;;;21.20;66.50;;;;;;2614741;52;20934;-68
2023/09/23 11:43:03;;;;;;;2.20;0.70;;;21.30;66.60;;;;;;2607219;52;20940;-71
2023/09/23 11:45:29;;;;;;;1.95;0.55;;;21.30;66.70;;;;;;2368726;53;20940;-70
2023/09/23 11:47:56;;;;;;;3.12;0.70;;;21.40;66.70;;;;;;2368816;53;21013;-74
2023/09/23 11:50:23;;;;;;;2.17;0.62;;;21.40;66.60;;;;;;2622647;52;20946;-67
2023/09/23 11:52:52;;;;;;;1.83;0.50;;;21.50;66.50;;;;;;2622747;52;20898;-69
2023/09/23 11:55:18;;;;;;;0.88;0.30;;;21.50;66.50;;;;;;2622673;52;20958;-67
2023/09/23 11:57:46;;;;;;;1.87;0.60;;;21.60;66.50;;;;;;2369667;53;20933;-70
2023/09/23 12:00:13;;;;;;;1.52;0.60;;;21.60;66.40;;;;;;2370557;53;21460;-68
2023/09/23 12:02:40;;;;;;;1.80;0.50;;;21.70;66.50;;;;;;2621786;52;21001;-71
2023/09/23 12:05:11;;;;;;;1.50;0.50;;;21.70;66.20;;;;;;2370398;53;21001;-71
2023/09/23 12:07:37;;;;;;;1.73;0.47;;;21.80;65.70;;;;;;2369867;53;21880;-69
2023/09/23 12:10:09;;;;;;;1.25;0.40;;;21.80;66.20;;;;;;2369849;53;21489;-67
2023/09/23 12:12:35;;;;;;;2.12;0.50;;;21.90;65.90;;;;;;2622214;52;20950;-69
2023/09/23 12:15:04;;;;;;;2.95;0.50;;;22.00;66.30;;;;;;2366849;53;21549;-68
2023/09/23 12:17:31;;;;;;;1.10;0.40;;;22.10;66.20;;;;;;2369028;53;20926;-68
2023/09/23 12:19:57;;;;;;;1.35;0.47;;;22.20;66.20;;;;;;2369737;53;21005;-68
2023/09/23 12:22:23;;;;;;;1.55;0.55;;;22.20;66.00;;;;;;2370293;53;20994;-69
2023/09/23 12:24:52;;;;;;;1.60;0.32;;;22.30;65.90;;;;;;2622428;52;21363;-69
2023/09/23 12:27:21;;;;;;;1.52;0.45;;;22.40;65.80;;;;;;2370041;53;20946;-70
2023/09/23 12:29:48;;;;;;;1.30;0.60;;;22.50;65.70;;;;;;2352054;53;21485;-68
2023/09/23 12:32:14;;;;;;;3.28;0.70;;;22.50;65.60;;;;;;2588125;52;21001;-68
2023/09/23 12:34:40;;;;;;;1.20;0.43;;;22.60;65.50;;;;;;2588632;52;20932;-69
2023/09/23 12:37:07;;;;;;;1.05;0.45;;;22.70;65.10;;;;;;2342625;53;21020;-68
2023/09/23 12:39:33;;;;;;;2.03;0.50;;;22.70;64.90;;;;;;2342323;53;21045;-69
2023/09/23 12:42:00;;;;;;;1.23;0.40;;;22.80;64.60;;;;;;2587938;52;21390;-69
2023/09/23 12:44:27;;;;;;;1.92;0.50;;;22.80;64.40;;;;;;2342421;53;21727;-67
2023/09/23 12:46:53;;;;;;;1.12;0.30;;;22.90;64.20;;;;;;2345846;53;20962;-68
2023/09/23 12:49:19;;;;;;;1.20;0.40;;;22.90;64.30;;;;;;2342534;53;20965;-69
2023/09/23 12:51:47;;;;;;;0.95;0.28;;;22.90;64.40;;;;;;2342076;53;20989;-71